Time;durP1;ratioP1;P1;durP2;ratioP2;P2;SDS_P1;SDS_P2;PMS_P1;PMS_P2;Temp;Humidity;BMP_temperature;BMP_pressure;BME280_temperature;BME280_humidity;BME280_pressure;Samples;Min_cycle;Max_cycle;Signal;HPM_P1;HPM_P2
2023/04/24 00:00:17;;;;;;;2.73;2.63;;;10.10;99.90;;;;;;5089750;28;20716;-57
2023/04/24 00:02:47;;;;;;;2.70;2.50;;;10.00;99.90;;;;;;5091412;28;20383;-58
2023/04/24 00:05:14;;;;;;;3.97;2.70;;;10.00;99.90;;;;;;5101799;28;20545;-56
2023/04/24 00:07:40;;;;;;;3.78;3.47;;;10.00;99.90;;;;;;5090452;28;20036;-57
2023/04/24 00:10:06;;;;;;;;;;;9.90;99.90;;;;;;5089142;28;20040;-57
2023/04/24 00:12:32;;;;;;;2.00;1.90;;;9.90;99.90;;;;;;5090201;28;19921;-58
2023/04/24 00:14:58;;;;;;;2.60;2.47;;;9.90;99.90;;;;;;5090773;28;20044;-56
2023/04/24 00:17:23;;;;;;;2.13;1.50;;;9.90;99.90;;;;;;5089074;28;20051;-57
2023/04/24 00:19:51;;;;;;;1.10;1.00;;;9.80;99.90;;;;;;5102647;28;20032;-55
2023/04/24 00:22:17;;;;;;;1.00;0.63;;;9.80;99.90;;;;;;5089853;28;20506;-56
2023/04/24 00:24:42;;;;;;;2.03;1.00;;;9.80;99.90;;;;;;5102817;28;20043;-57
2023/04/24 00:27:08;;;;;;;0.82;0.82;;;9.80;99.90;;;;;;5110539;28;20032;-57
2023/04/24 00:29:34;;;;;;;1.23;0.60;;;9.80;99.90;;;;;;5093190;28;20552;-56
2023/04/24 00:32:00;;;;;;;1.88;0.63;;;9.80;99.90;;;;;;5096407;28;20031;-55
2023/04/24 00:34:25;;;;;;;0.70;0.50;;;9.80;99.90;;;;;;5109340;28;20035;-58
2023/04/24 00:36:52;;;;;;;0.52;0.52;;;9.80;99.90;;;;;;5096928;28;20624;-55
2023/04/24 00:39:21;;;;;;;2.05;0.95;;;9.70;99.90;;;;;;5102915;28;20455;-57
2023/04/24 00:41:48;;;;;;;0.43;0.43;;;9.70;99.90;;;;;;5113939;28;20028;-57
2023/04/24 00:44:14;;;;;;;1.80;0.43;;;9.70;99.90;;;;;;5105079;28;20036;-56
2023/04/24 00:46:39;;;;;;;;;;;9.60;99.90;;;;;;5108608;28;20497;-57
2023/04/24 00:49:06;;;;;;;0.60;0.60;;;9.60;99.90;;;;;;5106222;28;19998;-57
2023/04/24 00:51:32;;;;;;;2.67;0.70;;;9.60;99.90;;;;;;5111169;27;20039;-56
2023/04/24 00:53:59;;;;;;;0.68;0.68;;;9.60;99.90;;;;;;5105879;28;20497;-57
2023/04/24 00:56:24;;;;;;;1.17;1.08;;;9.60;99.90;;;;;;5101739;28;20504;-57
2023/04/24 00:58:50;;;;;;;1.70;1.33;;;9.60;99.90;;;;;;5094837;28;20040;-56
2023/04/24 01:01:16;;;;;;;6.00;1.08;;;9.60;99.90;;;;;;5108499;28;20817;-57
2023/04/24 01:03:42;;;;;;;2.35;0.95;;;9.60;99.90;;;;;;5111860;28;20041;-57
2023/04/24 01:06:09;;;;;;;1.27;1.17;;;9.50;99.90;;;;;;5113959;28;20426;-57
2023/04/24 01:08:35;;;;;;;;;;;9.50;99.90;;;;;;5110977;28;20031;-56
2023/04/24 01:11:03;;;;;;;1.27;1.17;;;9.50;99.90;;;;;;5106520;27;19919;-56
2023/04/24 01:13:31;;;;;;;1.65;1.50;;;9.50;99.90;;;;;;5094389;28;20131;-55
2023/04/24 01:15:57;;;;;;;2.83;2.03;;;9.50;99.90;;;;;;5106150;28;20533;-56
2023/04/24 01:18:23;;;;;;;2.40;2.30;;;9.50;99.90;;;;;;5112408;28;20036;-57
2023/04/24 01:20:52;;;;;;;2.23;2.10;;;9.40;99.90;;;;;;5091998;28;20525;-56
2023/04/24 01:23:17;;;;;;;2.63;2.42;;;9.40;99.90;;;;;;5092862;28;20446;-55
2023/04/24 01:25:43;;;;;;;3.30;3.10;;;9.40;99.90;;;;;;5111145;28;20035;-56
2023/04/24 01:28:09;;;;;;;3.88;3.40;;;9.40;99.90;;;;;;5112483;28;20047;-57
2023/04/24 01:30:35;;;;;;;4.55;4.00;;;9.40;99.90;;;;;;5094935;28;20085;-57
2023/04/24 01:33:01;;;;;;;5.87;4.63;;;9.40;99.90;;;;;;5092810;28;20088;-56
2023/04/24 01:35:26;;;;;;;5.38;4.97;;;9.40;99.90;;;;;;5094832;28;20282;-55
2023/04/24 01:37:52;;;;;;;7.35;6.65;;;9.40;99.90;;;;;;5091932;28;20489;-56
2023/04/24 01:40:18;;;;;;;7.73;7.03;;;9.40;99.90;;;;;;5104147;28;20095;-56
2023/04/24 01:42:44;;;;;;;7.73;7.03;;;9.40;99.90;;;;;;5113155;28;20273;-57
2023/04/24 01:45:12;;;;;;;7.80;7.05;;;9.40;99.90;;;;;;5111066;27;20130;-56
2023/04/24 01:47:39;;;;;;;7.75;7.07;;;9.40;99.90;;;;;;5111369;28;20032;-57
2023/04/24 01:50:05;;;;;;;10.43;8.18;;;9.40;99.90;;;;;;5102553;28;20040;-57
2023/04/24 01:52:33;;;;;;;8.85;8.02;;;9.40;99.90;;;;;;5104224;28;20043;-56
2023/04/24 01:55:04;;;;;;;6.80;6.15;;;9.40;99.90;;;;;;5111156;27;20040;-57
2023/04/24 01:57:31;;;;;;;9.43;6.82;;;9.40;99.90;;;;;;5098045;28;20052;-56
2023/04/24 01:59:57;;;;;;;6.25;5.75;;;9.50;99.90;;;;;;5096802;28;20215;-57
2023/04/24 02:02:23;;;;;;;6.17;5.73;;;9.50;99.90;;;;;;5110464;28;20024;-56
2023/04/24 02:04:50;;;;;;;6.30;5.32;;;9.50;99.90;;;;;;5107913;28;20032;-56
2023/04/24 02:07:16;;;;;;;6.03;5.30;;;9.50;99.90;;;;;;5094559;28;20036;-58
2023/04/24 02:09:41;;;;;;;4.47;4.18;;;9.60;99.90;;;;;;5104027;28;20043;-56
2023/04/24 02:12:07;;;;;;;4.77;4.43;;;9.60;99.90;;;;;;5099194;28;20098;-55
2023/04/24 02:14:33;;;;;;;6.15;4.63;;;9.60;99.90;;;;;;5111463;28;20111;-55
2023/04/24 02:16:58;;;;;;;4.90;4.60;;;9.60;99.90;;;;;;5103365;28;20047;-57
2023/04/24 02:19:24;;;;;;;6.13;5.63;;;9.60;99.90;;;;;;5110726;28;20039;-57
2023/04/24 02:21:50;;;;;;;5.30;4.87;;;9.70;99.90;;;;;;5094303;28;20061;-55
2023/04/24 02:24:16;;;;;;;6.45;5.32;;;9.70;99.90;;;;;;5098750;28;20585;-54
2023/04/24 02:26:41;;;;;;;6.45;5.53;;;9.70;99.90;;;;;;5109203;28;20034;-56
2023/04/24 02:29:07;;;;;;;5.00;4.57;;;9.70;99.90;;;;;;5091696;28;20036;-56
2023/04/24 02:31:33;;;;;;;5.13;4.70;;;9.70;99.90;;;;;;5107528;28;20039;-57
2023/04/24 02:33:59;;;;;;;6.97;4.70;;;9.70;99.90;;;;;;5106007;28;20068;-57
2023/04/24 02:36:25;;;;;;;3.87;3.10;;;9.70;99.90;;;;;;5105689;28;20096;-57
2023/04/24 02:38:50;;;;;;;5.68;3.17;;;9.60;99.90;;;;;;5110627;27;20500;-56
2023/04/24 02:41:16;;;;;;;3.33;3.13;;;9.70;99.90;;;;;;5098301;28;20412;-56
2023/04/24 02:43:41;;;;;;;5.07;3.27;;;9.60;99.90;;;;;;5091137;28;20561;-53
2023/04/24 02:46:07;;;;;;;3.67;3.43;;;9.70;99.90;;;;;;5102254;28;20141;-55
2023/04/24 02:48:33;;;;;;;4.03;3.72;;;9.60;99.90;;;;;;5110042;28;20428;-54
2023/04/24 02:50:58;;;;;;;3.43;3.23;;;9.60;99.90;;;;;;5101460;28;20032;-56
2023/04/24 02:53:24;;;;;;;3.47;3.20;;;9.60;99.90;;;;;;5090882;28;20300;-54
2023/04/24 02:55:49;;;;;;;3.25;3.05;;;9.60;99.90;;;;;;5092456;28;20032;-56
2023/04/24 02:58:15;;;;;;;3.43;3.13;;;9.60;99.90;;;;;;5088023;28;20481;-57
2023/04/24 03:00:41;;;;;;;3.50;3.03;;;9.60;99.90;;;;;;5096007;28;20293;-54
2023/04/24 03:03:07;;;;;;;4.00;3.72;;;9.60;99.90;;;;;;5110728;28;20043;-57
2023/04/24 03:05:32;;;;;;;3.08;2.88;;;9.60;99.90;;;;;;5106587;28;20024;-57
2023/04/24 03:07:58;;;;;;;4.43;3.83;;;9.60;99.90;;;;;;5090225;28;20028;-57
2023/04/24 03:10:24;;;;;;;3.20;2.90;;;9.60;99.90;;;;;;5092557;28;20079;-54
2023/04/24 03:12:50;;;;;;;3.20;2.90;;;9.60;99.90;;;;;;5109225;28;20036;-54
2023/04/24 03:15:16;;;;;;;3.17;2.97;;;9.60;99.90;;;;;;5109815;28;20405;-56
2023/04/24 03:17:42;;;;;;;3.85;3.55;;;9.60;99.90;;;;;;5089402;28;20043;-56
2023/04/24 03:20:08;;;;;;;3.47;3.27;;;9.60;99.90;;;;;;5089959;28;20496;-58
2023/04/24 03:22:34;;;;;;;;;;;9.60;99.90;;;;;;5109057;28;20309;-57
2023/04/24 03:25:00;;;;;;;3.88;3.58;;;9.60;99.90;;;;;;5110627;28;19955;-54
2023/04/24 03:27:26;;;;;;;4.22;3.97;;;9.50;99.90;;;;;;5092488;28;20036;-56
2023/04/24 03:29:54;;;;;;;3.95;3.72;;;9.50;99.90;;;;;;5089407;28;20117;-57
2023/04/24 03:32:22;;;;;;;4.95;4.55;;;9.50;99.90;;;;;;5105857;28;20535;-57
2023/04/24 03:34:48;;;;;;;4.43;4.13;;;9.50;99.90;;;;;;5091978;28;20039;-58
2023/04/24 03:37:14;;;;;;;4.45;4.15;;;9.50;99.90;;;;;;5091980;28;20115;-57
2023/04/24 03:39:39;;;;;;;4.45;4.15;;;9.40;99.90;;;;;;5105755;28;20123;-54
2023/04/24 03:42:05;;;;;;;5.17;4.30;;;9.40;99.90;;;;;;5098298;28;20046;-54
2023/04/24 03:44:30;;;;;;;4.87;3.77;;;9.40;99.90;;;;;;5103187;28;20039;-57
2023/04/24 03:46:58;;;;;;;5.73;4.13;;;9.40;99.90;;;;;;5099740;28;20077;-58
2023/04/24 03:49:23;;;;;;;4.53;4.22;;;9.40;99.90;;;;;;5105019;28;20035;-57
2023/04/24 03:51:49;;;;;;;3.77;3.57;;;9.30;99.90;;;;;;5101722;28;20474;-56
2023/04/24 03:54:14;;;;;;;4.30;3.90;;;9.40;99.90;;;;;;5091412;28;20044;-56
2023/04/24 03:56:40;;;;;;;4.63;4.23;;;9.40;99.90;;;;;;5094805;28;20298;-56
2023/04/24 03:59:06;;;;;;;4.73;4.30;;;9.40;99.90;;;;;;5089277;28;20079;-58
2023/04/24 04:01:31;;;;;;;7.73;4.93;;;9.40;99.90;;;;;;5102347;28;20036;-58
2023/04/24 04:03:57;;;;;;;5.10;4.70;;;9.30;99.90;;;;;;5089688;28;20278;-57
2023/04/24 04:06:22;;;;;;;6.53;5.90;;;9.30;99.90;;;;;;5106916;28;20489;-56
2023/04/24 04:08:48;;;;;;;6.50;6.00;;;9.30;99.90;;;;;;5088465;28;20039;-56
2023/04/24 04:11:13;;;;;;;8.63;6.50;;;9.30;99.90;;;;;;5104165;28;20122;-58
2023/04/24 04:13:39;;;;;;;7.95;7.25;;;9.30;99.90;;;;;;5089964;28;20044;-56
2023/04/24 04:16:05;;;;;;;7.20;6.60;;;9.30;99.90;;;;;;5091494;28;20393;-54
2023/04/24 04:18:30;;;;;;;7.22;6.53;;;9.30;99.90;;;;;;5095947;28;20286;-57
2023/04/24 04:20:56;;;;;;;7.30;6.27;;;9.30;99.90;;;;;;5097040;28;20047;-55
2023/04/24 04:23:22;;;;;;;8.63;7.47;;;9.20;99.90;;;;;;5100236;28;20038;-57
2023/04/24 04:25:49;;;;;;;7.22;6.63;;;9.20;99.90;;;;;;5097809;28;20555;-58
2023/04/24 04:28:15;;;;;;;6.70;6.13;;;9.20;99.90;;;;;;5095912;28;20042;-56
2023/04/24 04:30:41;;;;;;;7.43;6.83;;;9.20;99.90;;;;;;5107686;28;20043;-57
2023/04/24 04:33:07;;;;;;;8.02;7.30;;;9.10;99.90;;;;;;5110106;28;20497;-56
2023/04/24 04:35:33;;;;;;;7.22;6.53;;;9.20;99.90;;;;;;5108205;28;20035;-57
2023/04/24 04:37:59;;;;;;;8.32;6.97;;;9.20;99.90;;;;;;5089535;28;20520;-56
2023/04/24 04:40:25;;;;;;;7.20;6.20;;;9.20;99.90;;;;;;5092660;28;20043;-57
2023/04/24 04:42:52;;;;;;;7.07;6.43;;;9.20;99.90;;;;;;5109700;28;20036;-57
2023/04/24 04:45:18;;;;;;;8.57;7.15;;;9.20;99.90;;;;;;5107733;28;20101;-57
2023/04/24 04:47:44;;;;;;;6.82;5.97;;;9.20;99.90;;;;;;5109120;28;20044;-56
2023/04/24 04:50:10;;;;;;;6.53;6.00;;;9.20;99.90;;;;;;5103530;28;20185;-56
2023/04/24 04:52:36;;;;;;;6.80;6.20;;;9.20;99.90;;;;;;5109941;28;20036;-54
2023/04/24 04:55:02;;;;;;;6.83;6.30;;;9.30;99.90;;;;;;5109367;28;20180;-54
2023/04/24 04:57:27;;;;;;;6.97;6.35;;;9.20;99.90;;;;;;5106698;28;20130;-56
2023/04/24 04:59:53;;;;;;;7.05;6.47;;;9.30;99.90;;;;;;5108662;28;20208;-57
2023/04/24 05:02:19;;;;;;;8.10;7.27;;;9.30;99.90;;;;;;5089339;28;20035;-57
2023/04/24 05:04:44;;;;;;;7.50;6.45;;;9.30;99.90;;;;;;5089224;28;20032;-56
2023/04/24 05:07:11;;;;;;;5.60;5.10;;;9.30;99.90;;;;;;5071916;28;20083;-55
2023/04/24 05:09:37;;;;;;;6.07;5.57;;;9.40;99.90;;;;;;5088097;28;20086;-58
2023/04/24 05:12:03;;;;;;;5.80;5.15;;;9.40;99.90;;;;;;5104066;28;20427;-57
2023/04/24 05:14:28;;;;;;;5.93;4.85;;;9.40;99.90;;;;;;5109206;28;20547;-56
2023/04/24 05:16:54;;;;;;;4.47;4.07;;;9.40;99.90;;;;;;5097151;28;20040;-57
2023/04/24 05:19:19;;;;;;;4.43;4.13;;;9.40;99.90;;;;;;5087869;28;20491;-56
2023/04/24 05:21:45;;;;;;;4.07;3.60;;;9.40;99.90;;;;;;5101408;28;20352;-57
2023/04/24 05:24:11;;;;;;;3.75;3.50;;;9.40;99.90;;;;;;5112013;28;20047;-56
2023/04/24 05:26:37;;;;;;;3.50;3.20;;;9.40;99.90;;;;;;5111144;27;20404;-55
2023/04/24 05:29:03;;;;;;;4.50;3.05;;;9.40;99.90;;;;;;5111756;28;20696;-57
2023/04/24 05:31:29;;;;;;;3.10;2.88;;;9.40;99.90;;;;;;5105358;28;20028;-56
2023/04/24 05:33:55;;;;;;;2.83;2.63;;;9.40;99.90;;;;;;5092441;28;20036;-55
2023/04/24 05:36:20;;;;;;;2.25;2.15;;;9.30;99.90;;;;;;5098529;28;20067;-54
2023/04/24 05:38:46;;;;;;;4.13;3.72;;;9.30;99.90;;;;;;5099901;28;20035;-54
2023/04/24 05:41:11;;;;;;;3.33;3.13;;;9.30;99.90;;;;;;5100698;28;20042;-57
2023/04/24 05:43:37;;;;;;;4.33;3.93;;;9.40;99.90;;;;;;5101522;28;20092;-54
2023/04/24 05:46:03;;;;;;;4.80;4.40;;;9.30;99.90;;;;;;5103152;28;20048;-56
2023/04/24 05:48:28;;;;;;;4.43;4.13;;;9.40;99.90;;;;;;5098998;28;20021;-57
2023/04/24 05:50:54;;;;;;;4.40;4.10;;;9.30;99.90;;;;;;5100776;27;20035;-56
2023/04/24 05:53:19;;;;;;;5.20;4.70;;;9.30;99.90;;;;;;5096864;28;20216;-56
2023/04/24 05:55:45;;;;;;;3.37;3.07;;;9.30;99.90;;;;;;5100894;28;20042;-56
2023/04/24 05:58:11;;;;;;;4.78;2.65;;;9.30;99.90;;;;;;5100587;28;20408;-57
2023/04/24 06:00:39;;;;;;;;;;;9.30;99.90;;;;;;5099430;28;20040;-57
2023/04/24 06:03:05;;;;;;;3.35;2.67;;;9.20;99.90;;;;;;5099458;28;20296;-56
2023/04/24 06:05:31;;;;;;;2.90;2.70;;;9.20;99.90;;;;;;5101835;28;20040;-56
2023/04/24 06:07:56;;;;;;;2.95;2.63;;;9.20;99.90;;;;;;5099674;28;20102;-56
2023/04/24 06:10:22;;;;;;;2.73;2.50;;;9.20;99.90;;;;;;5101080;28;20048;-57
2023/04/24 06:12:47;;;;;;;2.63;2.43;;;9.10;99.90;;;;;;5099008;28;20397;-54
2023/04/24 06:15:13;;;;;;;2.27;1.90;;;9.10;99.90;;;;;;5100221;28;20067;-53
2023/04/24 06:17:39;;;;;;;2.57;2.23;;;9.10;99.90;;;;;;5092867;28;20313;-56
2023/04/24 06:20:06;;;;;;;1.40;1.30;;;9.10;99.90;;;;;;5099333;28;20503;-54
2023/04/24 06:22:32;;;;;;;2.05;1.80;;;9.10;99.90;;;;;;5095011;28;20066;-57
2023/04/24 06:24:58;;;;;;;2.63;2.42;;;9.10;99.90;;;;;;5099563;28;20485;-54
2023/04/24 06:27:23;;;;;;;2.43;2.27;;;9.10;99.90;;;;;;5098386;28;20919;-57
2023/04/24 06:29:54;;;;;;;2.57;2.37;;;9.10;99.90;;;;;;5094984;28;20143;-57
2023/04/24 06:32:22;;;;;;;2.72;2.53;;;9.00;99.90;;;;;;5101191;28;20432;-55
2023/04/24 06:34:48;;;;;;;2.83;2.63;;;9.00;99.90;;;;;;5103961;28;20040;-57
2023/04/24 06:37:14;;;;;;;3.30;3.07;;;9.00;99.90;;;;;;5100569;28;20531;-58
2023/04/24 06:39:39;;;;;;;3.20;2.95;;;9.00;99.90;;;;;;5100051;27;20047;-58
2023/04/24 06:42:05;;;;;;;3.70;3.27;;;9.00;99.90;;;;;;5100160;28;20036;-57
2023/04/24 06:44:31;;;;;;;3.08;2.75;;;9.00;99.90;;;;;;5091527;28;20039;-54
2023/04/24 06:46:56;;;;;;;3.60;2.90;;;9.00;99.90;;;;;;5100978;28;20031;-56
2023/04/24 06:49:22;;;;;;;3.43;2.80;;;9.00;99.90;;;;;;5097168;28;20039;-55
2023/04/24 06:51:47;;;;;;;3.87;3.10;;;9.00;99.90;;;;;;5100293;28;20504;-56
2023/04/24 06:54:13;;;;;;;5.47;3.63;;;8.90;99.90;;;;;;5098401;28;20040;-55
2023/04/24 06:56:38;;;;;;;3.60;3.27;;;9.00;99.90;;;;;;5092722;28;20032;-55
2023/04/24 06:59:04;;;;;;;3.13;2.73;;;9.00;99.90;;;;;;5105005;28;20036;-55
2023/04/24 07:01:30;;;;;;;4.22;3.40;;;9.00;99.90;;;;;;5110955;28;20405;-56
2023/04/24 07:03:55;;;;;;;3.97;3.53;;;9.00;99.90;;;;;;5097505;28;20038;-55
2023/04/24 07:06:22;;;;;;;3.57;3.10;;;9.00;99.90;;;;;;5098701;28;20028;-55
2023/04/24 07:08:48;;;;;;;3.53;3.13;;;9.00;99.90;;;;;;5096119;28;20036;-54
2023/04/24 07:11:14;;;;;;;6.35;2.88;;;8.90;99.90;;;;;;5098173;28;20561;-53
2023/04/24 07:13:41;;;;;;;5.43;2.27;;;8.90;99.90;;;;;;5095726;28;20047;-55
2023/04/24 07:16:08;;;;;;;3.20;2.20;;;9.00;99.90;;;;;;5111296;28;20312;-56
2023/04/24 07:18:33;;;;;;;2.63;2.42;;;8.90;99.90;;;;;;5106613;28;20084;-54
2023/04/24 07:20:59;;;;;;;3.33;2.40;;;8.90;99.90;;;;;;5096442;28;20051;-55
2023/04/24 07:23:25;;;;;;;3.13;2.27;;;8.90;99.90;;;;;;5097645;28;20523;-57
2023/04/24 07:25:50;;;;;;;5.60;2.85;;;8.90;99.90;;;;;;5097342;28;20044;-54
2023/04/24 07:28:17;;;;;;;2.15;2.00;;;8.90;99.90;;;;;;5097355;28;20481;-55
2023/04/24 07:30:43;;;;;;;1.90;1.65;;;8.90;99.90;;;;;;5079561;28;20059;-55
2023/04/24 07:33:11;;;;;;;2.30;1.65;;;8.90;99.90;;;;;;5089528;28;20040;-56
2023/04/24 07:35:36;;;;;;;5.00;2.25;;;8.90;99.90;;;;;;5088849;28;20040;-57
2023/04/24 07:38:02;;;;;;;3.72;2.47;;;9.00;99.90;;;;;;5090584;28;20027;-56
2023/04/24 07:40:27;;;;;;;4.80;2.20;;;9.00;99.90;;;;;;5091635;28;20039;-55
2023/04/24 07:42:53;;;;;;;2.30;1.97;;;9.00;99.90;;;;;;5095430;28;20708;-56
2023/04/24 07:45:19;;;;;;;2.10;1.97;;;9.10;99.90;;;;;;5090567;28;20075;-54
2023/04/24 07:47:45;;;;;;;2.03;1.87;;;9.10;99.90;;;;;;5089909;28;20035;-54
2023/04/24 07:50:12;;;;;;;2.85;2.22;;;9.20;99.90;;;;;;5089110;28;20297;-54
2023/04/24 07:52:38;;;;;;;3.67;2.50;;;9.10;99.90;;;;;;5091327;27;20479;-55
2023/04/24 07:55:04;;;;;;;2.33;2.13;;;9.20;99.90;;;;;;5088050;28;20040;-56
2023/04/24 07:57:30;;;;;;;;;;;9.20;99.90;;;;;;5090445;28;20028;-56
2023/04/24 07:59:55;;;;;;;6.88;3.17;;;9.20;99.90;;;;;;5089865;28;19989;-56
2023/04/24 08:02:26;;;;;;;6.33;3.10;;;9.30;99.90;;;;;;5092755;28;20028;-56
2023/04/24 08:04:53;;;;;;;4.90;3.53;;;9.30;99.90;;;;;;5093576;28;20043;-57
2023/04/24 08:07:19;;;;;;;5.13;4.30;;;9.30;99.90;;;;;;5093814;28;20036;-54
2023/04/24 08:09:44;;;;;;;5.53;4.35;;;9.40;99.90;;;;;;5093154;28;20673;-56
2023/04/24 08:12:10;;;;;;;4.77;4.37;;;9.40;99.90;;;;;;5089783;28;20044;-55
2023/04/24 08:14:35;;;;;;;4.85;4.05;;;9.40;99.90;;;;;;5095111;28;20085;-57
2023/04/24 08:17:02;;;;;;;7.10;4.23;;;9.50;99.90;;;;;;5094695;28;20032;-55
2023/04/24 08:19:27;;;;;;;;;;;9.50;99.90;;;;;;5090375;28;20090;-55
2023/04/24 08:21:53;;;;;;;7.57;3.90;;;9.50;99.90;;;;;;5092526;28;20480;-56
2023/04/24 08:24:19;;;;;;;8.45;4.50;;;9.50;99.90;;;;;;5095523;28;20775;-57
2023/04/24 08:26:44;;;;;;;4.13;3.73;;;9.50;99.90;;;;;;5091446;28;20036;-56
2023/04/24 08:29:10;;;;;;;6.57;4.60;;;9.50;99.90;;;;;;5090341;28;20423;-56
2023/04/24 08:31:36;;;;;;;9.63;4.30;;;9.50;99.90;;;;;;5095292;28;20035;-56
2023/04/24 08:34:01;;;;;;;4.85;3.63;;;9.60;99.90;;;;;;5091254;28;20328;-57
2023/04/24 08:36:27;;;;;;;6.03;3.27;;;9.60;99.90;;;;;;5094712;28;20044;-56
2023/04/24 08:38:53;;;;;;;4.35;2.25;;;9.60;99.90;;;;;;5088179;28;20322;-55
2023/04/24 08:41:19;;;;;;;4.23;3.03;;;9.60;99.90;;;;;;5090567;28;20043;-57
2023/04/24 08:43:49;;;;;;;2.63;2.22;;;9.70;99.90;;;;;;5089218;28;20294;-57
2023/04/24 08:46:16;;;;;;;3.75;2.20;;;9.70;99.90;;;;;;5092288;28;20367;-56
2023/04/24 08:48:42;;;;;;;3.00;2.50;;;9.80;99.90;;;;;;5090242;28;20035;-56
2023/04/24 08:51:09;;;;;;;2.97;2.25;;;9.80;99.90;;;;;;5096091;28;20694;-56
2023/04/24 08:53:35;;;;;;;2.78;2.35;;;9.90;99.90;;;;;;5098738;28;20450;-55
2023/04/24 08:56:02;;;;;;;6.65;2.70;;;9.90;99.90;;;;;;5095535;28;20101;-57
2023/04/24 08:58:27;;;;;;;;;;;9.90;99.90;;;;;;5093066;28;20130;-56
2023/04/24 09:00:57;;;;;;;4.63;2.63;;;10.00;99.90;;;;;;5102484;28;20010;-56
2023/04/24 09:03:23;;;;;;;6.85;4.38;;;10.00;99.90;;;;;;5094172;28;20044;-56
2023/04/24 09:05:50;;;;;;;12.82;5.05;;;10.00;99.90;;;;;;5099783;28;20043;-56
2023/04/24 09:08:22;;;;;;;10.52;5.43;;;10.00;99.90;;;;;;5093448;28;20186;-57
2023/04/24 09:10:47;;;;;;;10.10;5.95;;;10.00;99.90;;;;;;5094185;28;20523;-57
2023/04/24 09:13:14;;;;;;;8.47;6.00;;;10.00;99.90;;;;;;5093931;28;20060;-56
2023/04/24 09:15:41;;;;;;;10.95;6.72;;;10.00;99.90;;;;;;5092088;28;20376;-56
2023/04/24 09:18:06;;;;;;;11.55;7.05;;;10.00;99.90;;;;;;5079517;28;20051;-57
2023/04/24 09:20:33;;;;;;;10.82;6.85;;;10.00;99.90;;;;;;5094521;28;20042;-56
2023/04/24 09:22:58;;;;;;;9.63;7.25;;;10.00;99.90;;;;;;5100237;28;20027;-57
2023/04/24 09:25:37;;;;;;;10.48;7.43;;;10.00;99.90;;;;;;5097293;28;20036;-57
2023/04/24 09:28:06;;;;;;;11.27;7.70;;;10.00;99.90;;;;;;5094495;28;20100;-57
2023/04/24 09:30:32;;;;;;;12.95;8.60;;;10.00;99.90;;;;;;5073929;28;20085;-56
2023/04/24 09:33:13;;;;;;;17.48;10.38;;;10.00;99.90;;;;;;5098770;28;20031;-58
2023/04/24 09:35:51;;;;;;;22.23;12.45;;;9.90;99.90;;;;;;5090109;28;20569;-58
2023/04/24 09:38:16;;;;;;;23.35;14.55;;;9.90;99.90;;;;;;5090671;28;20258;-57
2023/04/24 09:40:42;;;;;;;20.30;15.27;;;9.80;99.90;;;;;;5091416;28;20040;-57
2023/04/24 09:43:11;;;;;;;20.75;14.23;;;9.80;99.90;;;;;;5091436;28;20803;-57
2023/04/24 09:45:38;;;;;;;30.10;15.38;;;9.80;99.90;;;;;;5091354;28;20043;-57
2023/04/24 09:48:06;;;;;;;21.60;15.00;;;9.90;99.90;;;;;;5074225;28;20044;-59
2023/04/24 09:50:34;;;;;;;20.27;13.52;;;9.80;99.90;;;;;;5073086;28;20767;-56
2023/04/24 09:53:03;;;;;;;17.45;12.93;;;9.80;99.90;;;;;;5073005;28;20611;-56
2023/04/24 09:55:29;;;;;;;20.08;13.32;;;9.80;99.90;;;;;;5090496;28;20343;-57
2023/04/24 09:58:00;;;;;;;25.02;14.75;;;9.80;99.90;;;;;;5090634;28;20216;-57
2023/04/24 10:00:31;;;;;;;17.05;13.63;;;9.80;99.90;;;;;;5079628;28;20047;-57
2023/04/24 10:03:02;;;;;;;31.33;15.50;;;9.80;99.90;;;;;;5091599;28;20036;-55
2023/04/24 10:05:35;;;;;;;22.35;14.63;;;9.80;99.90;;;;;;5091585;27;20478;-56
2023/04/24 10:08:06;;;;;;;18.05;13.20;;;9.80;99.90;;;;;;5087718;28;20119;-57
2023/04/24 10:10:39;;;;;;;15.48;13.38;;;9.70;99.90;;;;;;5091600;28;20060;-57
2023/04/24 10:13:07;;;;;;;16.83;12.40;;;9.70;99.90;;;;;;5091482;28;20051;-57
2023/04/24 10:15:33;;;;;;;18.45;13.55;;;9.70;99.90;;;;;;5093764;28;20047;-56
2023/04/24 10:17:59;;;;;;;14.90;11.88;;;9.60;99.90;;;;;;5094296;28;20032;-56
2023/04/24 10:20:29;;;;;;;19.35;11.90;;;9.50;99.90;;;;;;5090594;28;20044;-57
2023/04/24 10:22:55;;;;;;;15.45;12.20;;;9.50;99.90;;;;;;5095659;28;20032;-57
2023/04/24 10:25:27;;;;;;;16.83;11.57;;;9.40;99.90;;;;;;5091814;28;20118;-57
2023/04/24 10:27:57;;;;;;;18.65;11.27;;;9.40;99.90;;;;;;5094990;28;20117;-57
2023/04/24 10:30:23;;;;;;;24.58;10.20;;;9.50;99.90;;;;;;5093867;28;20050;-56
2023/04/24 10:32:48;;;;;;;12.57;9.00;;;9.50;99.90;;;;;;5090606;28;20451;-57
2023/04/24 10:35:17;;;;;;;16.35;9.60;;;9.50;99.90;;;;;;5092806;28;20043;-57
2023/04/24 10:37:54;;;;;;;20.60;8.38;;;9.60;99.90;;;;;;5107465;27;20044;-56
2023/04/24 10:40:34;;;;;;;17.55;8.77;;;9.60;99.90;;;;;;5071468;28;20065;-56
2023/04/24 10:43:11;;;;;;;13.80;7.75;;;9.60;99.90;;;;;;5089092;28;20043;-57
2023/04/24 10:45:38;;;;;;;11.40;6.72;;;9.60;99.90;;;;;;5088995;28;20244;-58
2023/04/24 10:48:13;;;;;;;11.93;6.70;;;9.60;99.90;;;;;;5088622;28;20052;-57
2023/04/24 10:50:43;;;;;;;15.18;7.80;;;9.60;99.90;;;;;;5088411;28;20040;-57
2023/04/24 10:53:21;;;;;;;13.20;3.85;;;9.60;99.90;;;;;;5094413;28;20488;-57
2023/04/24 10:55:48;;;;;;;9.80;2.78;;;9.60;99.90;;;;;;5092603;28;20055;-53
2023/04/24 10:58:14;;;;;;;9.30;2.53;;;9.30;99.90;;;;;;5091471;28;20508;-56
2023/04/24 11:00:41;;;;;;;4.65;2.83;;;9.30;99.90;;;;;;5091156;28;20038;-58
2023/04/24 11:03:30;;;;;;;9.07;2.83;;;9.20;99.90;;;;;;5088664;28;20366;-56
2023/04/24 11:06:04;;;;;;;8.90;3.03;;;9.10;99.90;;;;;;5095202;28;20024;-56
2023/04/24 11:08:42;;;;;;;10.10;2.78;;;9.10;99.90;;;;;;5090211;28;20416;-57
2023/04/24 11:11:13;;;;;;;6.38;2.83;;;9.10;99.90;;;;;;5087208;28;20047;-57
2023/04/24 11:13:54;;;;;;;4.15;1.88;;;9.00;99.90;;;;;;5071178;28;20046;-57
2023/04/24 11:16:22;;;;;;;6.82;2.58;;;9.00;99.90;;;;;;5091296;28;20036;-57
2023/04/24 11:19:15;;;;;;;8.63;3.40;;;9.00;99.90;;;;;;5092818;28;20378;-58
2023/04/24 11:21:43;;;;;;;11.10;2.60;;;9.10;99.90;;;;;;5093294;28;20072;-55
2023/04/24 11:24:24;;;;;;;7.88;2.97;;;9.10;99.90;;;;;;5094207;28;20028;-57
2023/04/24 11:27:13;;;;;;;11.55;2.83;;;9.10;99.90;;;;;;5094617;28;20455;-58
2023/04/24 11:30:02;;;;;;;9.30;2.20;;;9.10;99.90;;;;;;5091688;28;20043;-56
2023/04/24 11:32:36;;;;;;;14.25;2.50;;;9.20;99.90;;;;;;5079838;28;20050;-58
2023/04/24 11:35:05;;;;;;;12.57;3.10;;;9.20;99.90;;;;;;5090889;28;20040;-57
2023/04/24 11:37:41;;;;;;;10.40;2.45;;;9.30;99.90;;;;;;5093233;28;20089;-58
2023/04/24 11:40:11;;;;;;;7.80;3.05;;;9.40;99.90;;;;;;5087130;28;20100;-57
2023/04/24 11:42:40;;;;;;;7.22;2.83;;;9.40;99.90;;;;;;5094289;28;20050;-58
2023/04/24 11:45:15;;;;;;;15.90;3.08;;;9.50;99.90;;;;;;5091084;28;20165;-57
2023/04/24 11:47:42;;;;;;;8.52;3.20;;;9.60;99.90;;;;;;5071237;28;20195;-56
2023/04/24 11:50:12;;;;;;;8.82;2.63;;;9.60;99.90;;;;;;5087296;28;20035;-57
2023/04/24 11:52:41;;;;;;;7.88;2.25;;;9.60;99.90;;;;;;5095027;28;20087;-57
2023/04/24 11:55:22;;;;;;;13.30;3.10;;;9.70;99.90;;;;;;5094591;28;20420;-57
2023/04/24 11:57:56;;;;;;;11.57;3.40;;;9.70;99.90;;;;;;5091315;28;20590;-58
2023/04/24 12:00:40;;;;;;;11.80;2.70;;;9.70;99.90;;;;;;5088201;28;20531;-58
2023/04/24 12:03:12;;;;;;;6.75;2.50;;;9.70;99.90;;;;;;5090818;28;20043;-58
2023/04/24 12:05:38;;;;;;;9.60;2.30;;;9.70;99.90;;;;;;5091087;28;20044;-58
2023/04/24 12:08:04;;;;;;;11.23;2.42;;;9.70;99.90;;;;;;5072576;28;20046;-57
2023/04/24 12:10:32;;;;;;;8.15;1.40;;;9.70;99.90;;;;;;5092407;28;20039;-58
2023/04/24 12:12:58;;;;;;;5.13;1.17;;;9.70;99.90;;;;;;5089521;28;20032;-57
2023/04/24 12:15:24;;;;;;;;;;;9.70;99.90;;;;;;5090770;28;20105;-57
2023/04/24 12:17:54;;;;;;;8.10;1.85;;;9.60;99.90;;;;;;5088384;28;20503;-57
2023/04/24 12:20:31;;;;;;;5.90;1.30;;;9.60;99.90;;;;;;5085170;28;20043;-57
2023/04/24 12:22:59;;;;;;;9.70;1.65;;;9.60;99.90;;;;;;5075683;28;20036;-57
2023/04/24 12:25:36;;;;;;;10.35;1.60;;;9.60;99.90;;;;;;5092960;28;20381;-57
2023/04/24 12:28:05;;;;;;;8.32;2.15;;;9.60;99.90;;;;;;5088069;28;20028;-57
2023/04/24 12:30:38;;;;;;;5.00;0.85;;;9.50;99.90;;;;;;5092437;28;20131;-57
2023/04/24 12:33:03;;;;;;;6.20;1.25;;;9.50;99.90;;;;;;5092183;28;20048;-57
2023/04/24 12:35:33;;;;;;;3.65;0.98;;;9.40;99.90;;;;;;5095303;28;20042;-56
2023/04/24 12:38:21;;;;;;;9.75;1.95;;;9.40;99.90;;;;;;5095263;28;20075;-57
2023/04/24 12:40:47;;;;;;;3.97;1.15;;;9.50;99.90;;;;;;5096630;28;20046;-57
2023/04/24 12:43:20;;;;;;;8.80;1.97;;;9.50;99.90;;;;;;5097060;28;20027;-58
2023/04/24 12:45:47;;;;;;;4.00;0.80;;;9.50;99.90;;;;;;5100166;28;20641;-55
2023/04/24 12:48:16;;;;;;;6.43;1.17;;;9.50;99.90;;;;;;5093777;28;20023;-57
2023/04/24 12:50:42;;;;;;;4.82;1.13;;;9.40;99.90;;;;;;5074897;28;20044;-57
2023/04/24 12:53:08;;;;;;;5.65;1.13;;;9.50;99.90;;;;;;5093248;28;20248;-57
2023/04/24 12:55:34;;;;;;;1.88;0.55;;;9.40;99.90;;;;;;5074930;28;20259;-56